sensor_id;sensor_type;location;lat;lon;timestamp;P1;durP1;ratioP1;P2;durP2;ratioP2
69030;SDS011;56083;48.774;8.942;2024-01-15T00:02:03;34.17;;;13.23;;
69030;SDS011;56083;48.774;8.942;2024-01-15T00:04:29;40.97;;;14.27;;
69030;SDS011;56083;48.774;8.942;2024-01-15T00:06:55;38.08;;;14.25;;
69030;SDS011;56083;48.774;8.942;2024-01-15T00:09:21;37.35;;;14.07;;
69030;SDS011;56083;48.774;8.942;2024-01-15T00:11:47;40.10;;;13.40;;
69030;SDS011;56083;48.774;8.942;2024-01-15T00:14:13;35.92;;;14.63;;
69030;SDS011;56083;48.774;8.942;2024-01-15T00:16:44;37.72;;;13.90;;
69030;SDS011;56083;48.774;8.942;2024-01-15T00:19:10;42.75;;;15.55;;
69030;SDS011;56083;48.774;8.942;2024-01-15T00:21:36;35.72;;;14.50;;
69030;SDS011;56083;48.774;8.942;2024-01-15T00:24:02;43.53;;;14.15;;
69030;SDS011;56083;48.774;8.942;2024-01-15T00:26:29;42.58;;;15.32;;
69030;SDS011;56083;48.774;8.942;2024-01-15T00:28:55;39.70;;;14.50;;
69030;SDS011;56083;48.774;8.942;2024-01-15T00:31:21;39.85;;;13.95;;
69030;SDS011;56083;48.774;8.942;2024-01-15T00:33:47;37.60;;;13.68;;
69030;SDS011;56083;48.774;8.942;2024-01-15T00:36:13;40.67;;;13.93;;
69030;SDS011;56083;48.774;8.942;2024-01-15T00:38:39;40.65;;;14.85;;
69030;SDS011;56083;48.774;8.942;2024-01-15T00:41:05;41.22;;;15.50;;
69030;SDS011;56083;48.774;8.942;2024-01-15T00:43:33;39.95;;;14.02;;
69030;SDS011;56083;48.774;8.942;2024-01-15T00:46:03;41.15;;;14.80;;
69030;SDS011;56083;48.774;8.942;2024-01-15T00:48:29;41.17;;;15.05;;
69030;SDS011;56083;48.774;8.942;2024-01-15T00:50:55;43.70;;;15.07;;
69030;SDS011;56083;48.774;8.942;2024-01-15T00:53:21;37.60;;;14.55;;
69030;SDS011;56083;48.774;8.942;2024-01-15T00:55:48;37.15;;;13.95;;
69030;SDS011;56083;48.774;8.942;2024-01-15T00:58:14;38.17;;;14.10;;
69030;SDS011;56083;48.774;8.942;2024-01-15T01:00:40;37.83;;;13.43;;
69030;SDS011;56083;48.774;8.942;2024-01-15T01:03:06;45.30;;;14.00;;
69030;SDS011;56083;48.774;8.942;2024-01-15T01:05:33;40.97;;;14.35;;
69030;SDS011;56083;48.774;8.942;2024-01-15T01:07:59;45.67;;;14.60;;
69030;SDS011;56083;48.774;8.942;2024-01-15T01:10:25;36.00;;;13.48;;
69030;SDS011;56083;48.774;8.942;2024-01-15T01:12:52;43.20;;;13.82;;
69030;SDS011;56083;48.774;8.942;2024-01-15T01:15:18;35.28;;;13.82;;
69030;SDS011;56083;48.774;8.942;2024-01-15T01:17:45;40.45;;;13.77;;
69030;SDS011;56083;48.774;8.942;2024-01-15T01:20:11;39.03;;;13.40;;
69030;SDS011;56083;48.774;8.942;2024-01-15T01:22:40;41.15;;;14.55;;
69030;SDS011;56083;48.774;8.942;2024-01-15T01:25:06;37.03;;;13.45;;
69030;SDS011;56083;48.774;8.942;2024-01-15T01:27:32;35.60;;;12.98;;
69030;SDS011;56083;48.774;8.942;2024-01-15T01:29:58;31.08;;;11.95;;
69030;SDS011;56083;48.774;8.942;2024-01-15T01:32:24;32.45;;;12.85;;
69030;SDS011;56083;48.774;8.942;2024-01-15T01:34:50;32.80;;;13.10;;
69030;SDS011;56083;48.774;8.942;2024-01-15T01:37:16;30.35;;;11.77;;
69030;SDS011;56083;48.774;8.942;2024-01-15T01:39:42;32.72;;;12.18;;
69030;SDS011;56083;48.774;8.942;2024-01-15T01:42:09;33.80;;;12.48;;
69030;SDS011;56083;48.774;8.942;2024-01-15T01:44:35;32.17;;;12.25;;
69030;SDS011;56083;48.774;8.942;2024-01-15T01:47:01;33.75;;;12.23;;
69030;SDS011;56083;48.774;8.942;2024-01-15T01:49:28;35.58;;;12.43;;
69030;SDS011;56083;48.774;8.942;2024-01-15T01:51:57;36.70;;;13.15;;
69030;SDS011;56083;48.774;8.942;2024-01-15T01:54:24;34.50;;;13.13;;
69030;SDS011;56083;48.774;8.942;2024-01-15T01:56:50;34.35;;;12.63;;
69030;SDS011;56083;48.774;8.942;2024-01-15T01:59:17;36.53;;;12.07;;
69030;SDS011;56083;48.774;8.942;2024-01-15T02:01:43;31.83;;;12.05;;
69030;SDS011;56083;48.774;8.942;2024-01-15T02:04:10;35.05;;;13.13;;
69030;SDS011;56083;48.774;8.942;2024-01-15T02:06:36;30.65;;;12.52;;
69030;SDS011;56083;48.774;8.942;2024-01-15T02:09:03;39.45;;;13.75;;
69030;SDS011;56083;48.774;8.942;2024-01-15T02:11:30;33.67;;;12.90;;
69030;SDS011;56083;48.774;8.942;2024-01-15T02:13:56;34.00;;;12.70;;
69030;SDS011;56083;48.774;8.942;2024-01-15T02:16:22;37.35;;;12.88;;
69030;SDS011;56083;48.774;8.942;2024-01-15T02:18:48;36.00;;;12.32;;
69030;SDS011;56083;48.774;8.942;2024-01-15T02:21:15;36.88;;;12.85;;
69030;SDS011;56083;48.774;8.942;2024-01-15T02:23:41;34.78;;;12.60;;
69030;SDS011;56083;48.774;8.942;2024-01-15T02:26:07;39.08;;;13.57;;
69030;SDS011;56083;48.774;8.942;2024-01-15T02:28:33;33.00;;;12.23;;
69030;SDS011;56083;48.774;8.942;2024-01-15T02:30:59;36.20;;;12.20;;
69030;SDS011;56083;48.774;8.942;2024-01-15T02:33:25;33.30;;;12.18;;
69030;SDS011;56083;48.774;8.942;2024-01-15T02:35:51;29.42;;;12.18;;
69030;SDS011;56083;48.774;8.942;2024-01-15T02:38:17;31.40;;;11.63;;
69030;SDS011;56083;48.774;8.942;2024-01-15T02:40:44;31.75;;;11.95;;
69030;SDS011;56083;48.774;8.942;2024-01-15T02:43:10;31.38;;;12.13;;
69030;SDS011;56083;48.774;8.942;2024-01-15T02:45:38;28.83;;;11.20;;
69030;SDS011;56083;48.774;8.942;2024-01-15T02:48:04;33.45;;;11.93;;
69030;SDS011;56083;48.774;8.942;2024-01-15T02:50:30;35.28;;;12.68;;
69030;SDS011;56083;48.774;8.942;2024-01-15T02:52:57;31.77;;;11.43;;
69030;SDS011;56083;48.774;8.942;2024-01-15T02:55:23;34.08;;;12.05;;
69030;SDS011;56083;48.774;8.942;2024-01-15T02:57:49;32.85;;;12.15;;
69030;SDS011;56083;48.774;8.942;2024-01-15T03:00:15;32.65;;;12.63;;
69030;SDS011;56083;48.774;8.942;2024-01-15T03:02:44;32.90;;;12.38;;
69030;SDS011;56083;48.774;8.942;2024-01-15T03:05:10;31.85;;;11.60;;
69030;SDS011;56083;48.774;8.942;2024-01-15T03:07:38;34.17;;;11.60;;
69030;SDS011;56083;48.774;8.942;2024-01-15T03:10:04;31.92;;;11.50;;
69030;SDS011;56083;48.774;8.942;2024-01-15T03:12:30;33.42;;;11.65;;
69030;SDS011;56083;48.774;8.942;2024-01-15T03:14:56;28.38;;;11.07;;
69030;SDS011;56083;48.774;8.942;2024-01-15T03:17:22;28.05;;;10.63;;
69030;SDS011;56083;48.774;8.942;2024-01-15T03:19:48;29.33;;;12.00;;
69030;SDS011;56083;48.774;8.942;2024-01-15T03:22:15;31.80;;;11.07;;
69030;SDS011;56083;48.774;8.942;2024-01-15T03:24:41;29.20;;;11.25;;
69030;SDS011;56083;48.774;8.942;2024-01-15T03:27:07;31.98;;;11.50;;
69030;SDS011;56083;48.774;8.942;2024-01-15T03:29:33;28.67;;;10.50;;
69030;SDS011;56083;48.774;8.942;2024-01-15T03:31:59;28.55;;;11.05;;
69030;SDS011;56083;48.774;8.942;2024-01-15T03:34:25;30.88;;;10.50;;
69030;SDS011;56083;48.774;8.942;2024-01-15T03:36:51;27.52;;;10.65;;
69030;SDS011;56083;48.774;8.942;2024-01-15T03:39:17;27.55;;;10.77;;
69030;SDS011;56083;48.774;8.942;2024-01-15T03:41:43;27.17;;;10.27;;
69030;SDS011;56083;48.774;8.942;2024-01-15T03:44:09;33.28;;;10.20;;
69030;SDS011;56083;48.774;8.942;2024-01-15T03:46:36;29.05;;;10.07;;
69030;SDS011;56083;48.774;8.942;2024-01-15T03:49:02;22.48;;;9.82;;
69030;SDS011;56083;48.774;8.942;2024-01-15T03:51:27;26.35;;;10.68;;
69030;SDS011;56083;48.774;8.942;2024-01-15T03:53:53;26.65;;;9.90;;
69030;SDS011;56083;48.774;8.942;2024-01-15T03:56:19;27.42;;;10.15;;
69030;SDS011;56083;48.774;8.942;2024-01-15T03:58:45;27.00;;;9.80;;
69030;SDS011;56083;48.774;8.942;2024-01-15T04:01:13;26.05;;;9.60;;
69030;SDS011;56083;48.774;8.942;2024-01-15T04:03:39;23.42;;;9.07;;
69030;SDS011;56083;48.774;8.942;2024-01-15T04:06:05;24.13;;;9.43;;
69030;SDS011;56083;48.774;8.942;2024-01-15T04:08:31;23.13;;;9.02;;
69030;SDS011;56083;48.774;8.942;2024-01-15T04:10:57;23.17;;;8.82;;
69030;SDS011;56083;48.774;8.942;2024-01-15T04:13:23;24.83;;;9.68;;
69030;SDS011;56083;48.774;8.942;2024-01-15T04:15:49;26.08;;;10.73;;
69030;SDS011;56083;48.774;8.942;2024-01-15T04:18:15;31.83;;;11.10;;
69030;SDS011;56083;48.774;8.942;2024-01-15T04:20:42;25.48;;;9.90;;
69030;SDS011;56083;48.774;8.942;2024-01-15T04:23:08;27.10;;;10.32;;
69030;SDS011;56083;48.774;8.942;2024-01-15T04:25:34;29.48;;;10.80;;
69030;SDS011;56083;48.774;8.942;2024-01-15T04:28:01;28.17;;;10.82;;
69030;SDS011;56083;48.774;8.942;2024-01-15T04:30:26;28.77;;;11.30;;
69030;SDS011;56083;48.774;8.942;2024-01-15T04:32:52;27.67;;;11.02;;
69030;SDS011;56083;48.774;8.942;2024-01-15T04:35:18;29.50;;;10.63;;
69030;SDS011;56083;48.774;8.942;2024-01-15T04:37:44;26.98;;;10.00;;
69030;SDS011;56083;48.774;8.942;2024-01-15T04:40:10;52.90;;;28.00;;
69030;SDS011;56083;48.774;8.942;2024-01-15T04:42:36;33.25;;;14.32;;
69030;SDS011;56083;48.774;8.942;2024-01-15T04:45:03;33.47;;;11.93;;
69030;SDS011;56083;48.774;8.942;2024-01-15T04:47:29;27.60;;;10.68;;
69030;SDS011;56083;48.774;8.942;2024-01-15T04:49:55;28.98;;;10.63;;
69030;SDS011;56083;48.774;8.942;2024-01-15T04:52:21;30.88;;;10.90;;
69030;SDS011;56083;48.774;8.942;2024-01-15T04:54:47;25.45;;;10.38;;
69030;SDS011;56083;48.774;8.942;2024-01-15T04:57:13;30.50;;;11.18;;
69030;SDS011;56083;48.774;8.942;2024-01-15T04:59:40;29.27;;;11.32;;
69030;SDS011;56083;48.774;8.942;2024-01-15T05:02:06;34.03;;;12.50;;
69030;SDS011;56083;48.774;8.942;2024-01-15T05:04:32;31.95;;;11.20;;
69030;SDS011;56083;48.774;8.942;2024-01-15T05:06:58;28.02;;;11.57;;
69030;SDS011;56083;48.774;8.942;2024-01-15T05:09:24;28.75;;;11.32;;
69030;SDS011;56083;48.774;8.942;2024-01-15T05:11:50;28.60;;;10.75;;
69030;SDS011;56083;48.774;8.942;2024-01-15T05:14:16;30.13;;;11.77;;
69030;SDS011;56083;48.774;8.942;2024-01-15T05:16:49;33.25;;;13.00;;
69030;SDS011;56083;48.774;8.942;2024-01-15T05:19:16;31.50;;;12.85;;
69030;SDS011;56083;48.774;8.942;2024-01-15T05:21:42;37.20;;;13.55;;
69030;SDS011;56083;48.774;8.942;2024-01-15T05:24:08;34.95;;;13.05;;
69030;SDS011;56083;48.774;8.942;2024-01-15T05:26:34;32.47;;;12.57;;
69030;SDS011;56083;48.774;8.942;2024-01-15T05:29:00;33.05;;;13.68;;
69030;SDS011;56083;48.774;8.942;2024-01-15T05:31:26;35.50;;;13.27;;
69030;SDS011;56083;48.774;8.942;2024-01-15T05:33:52;31.02;;;12.68;;
69030;SDS011;56083;48.774;8.942;2024-01-15T05:36:18;30.25;;;12.10;;
69030;SDS011;56083;48.774;8.942;2024-01-15T05:38:44;32.55;;;12.93;;
69030;SDS011;56083;48.774;8.942;2024-01-15T05:41:10;32.40;;;13.02;;
69030;SDS011;56083;48.774;8.942;2024-01-15T05:43:36;43.60;;;18.77;;
69030;SDS011;56083;48.774;8.942;2024-01-15T05:46:02;36.42;;;14.50;;
69030;SDS011;56083;48.774;8.942;2024-01-15T05:48:28;33.90;;;13.35;;
69030;SDS011;56083;48.774;8.942;2024-01-15T05:50:54;34.60;;;12.82;;
69030;SDS011;56083;48.774;8.942;2024-01-15T05:53:20;34.65;;;13.50;;
69030;SDS011;56083;48.774;8.942;2024-01-15T05:55:46;39.72;;;15.50;;
69030;SDS011;56083;48.774;8.942;2024-01-15T05:58:12;37.25;;;14.48;;
69030;SDS011;56083;48.774;8.942;2024-01-15T06:00:38;40.25;;;15.57;;
69030;SDS011;56083;48.774;8.942;2024-01-15T06:03:04;37.20;;;14.63;;
69030;SDS011;56083;48.774;8.942;2024-01-15T06:05:30;40.63;;;13.95;;
69030;SDS011;56083;48.774;8.942;2024-01-15T06:07:56;35.33;;;13.70;;
69030;SDS011;56083;48.774;8.942;2024-01-15T06:10:22;39.05;;;14.32;;
69030;SDS011;56083;48.774;8.942;2024-01-15T06:12:48;39.75;;;14.55;;
69030;SDS011;56083;48.774;8.942;2024-01-15T06:15:14;37.83;;;14.13;;
69030;SDS011;56083;48.774;8.942;2024-01-15T06:17:40;31.58;;;12.45;;
69030;SDS011;56083;48.774;8.942;2024-01-15T06:20:06;38.63;;;14.05;;
69030;SDS011;56083;48.774;8.942;2024-01-15T06:22:34;35.60;;;13.13;;
69030;SDS011;56083;48.774;8.942;2024-01-15T06:25:01;29.63;;;11.23;;
69030;SDS011;56083;48.774;8.942;2024-01-15T06:27:27;26.80;;;11.23;;
69030;SDS011;56083;48.774;8.942;2024-01-15T06:29:54;24.45;;;9.32;;
69030;SDS011;56083;48.774;8.942;2024-01-15T06:32:21;26.50;;;9.85;;
69030;SDS011;56083;48.774;8.942;2024-01-15T06:34:48;27.73;;;10.40;;
69030;SDS011;56083;48.774;8.942;2024-01-15T06:37:14;26.50;;;10.15;;
69030;SDS011;56083;48.774;8.942;2024-01-15T06:39:40;25.42;;;10.13;;
69030;SDS011;56083;48.774;8.942;2024-01-15T06:42:06;25.85;;;9.95;;
69030;SDS011;56083;48.774;8.942;2024-01-15T06:44:32;21.80;;;8.75;;
69030;SDS011;56083;48.774;8.942;2024-01-15T06:46:58;23.92;;;9.73;;
69030;SDS011;56083;48.774;8.942;2024-01-15T06:49:28;21.65;;;9.05;;
69030;SDS011;56083;48.774;8.942;2024-01-15T06:51:55;23.08;;;8.90;;
69030;SDS011;56083;48.774;8.942;2024-01-15T06:54:21;23.08;;;9.68;;
69030;SDS011;56083;48.774;8.942;2024-01-15T06:56:48;23.42;;;9.52;;
69030;SDS011;56083;48.774;8.942;2024-01-15T06:59:15;21.65;;;8.75;;
69030;SDS011;56083;48.774;8.942;2024-01-15T07:01:41;25.58;;;9.85;;
69030;SDS011;56083;48.774;8.942;2024-01-15T07:04:07;22.10;;;8.98;;
69030;SDS011;56083;48.774;8.942;2024-01-15T07:06:33;23.52;;;9.30;;
69030;SDS011;56083;48.774;8.942;2024-01-15T07:08:59;22.77;;;8.77;;
69030;SDS011;56083;48.774;8.942;2024-01-15T07:11:25;23.63;;;8.85;;
69030;SDS011;56083;48.774;8.942;2024-01-15T07:13:51;25.80;;;9.48;;
69030;SDS011;56083;48.774;8.942;2024-01-15T07:16:17;24.20;;;8.80;;
69030;SDS011;56083;48.774;8.942;2024-01-15T07:18:43;22.27;;;9.02;;
69030;SDS011;56083;48.774;8.942;2024-01-15T07:21:09;23.45;;;9.15;;
69030;SDS011;56083;48.774;8.942;2024-01-15T07:23:35;23.75;;;9.25;;
69030;SDS011;56083;48.774;8.942;2024-01-15T07:26:01;20.45;;;8.50;;
69030;SDS011;56083;48.774;8.942;2024-01-15T07:28:30;20.17;;;8.27;;
69030;SDS011;56083;48.774;8.942;2024-01-15T07:30:57;18.95;;;8.63;;
69030;SDS011;56083;48.774;8.942;2024-01-15T07:33:23;21.50;;;8.20;;
69030;SDS011;56083;48.774;8.942;2024-01-15T07:35:49;19.63;;;7.88;;
69030;SDS011;56083;48.774;8.942;2024-01-15T07:38:15;16.88;;;7.10;;
69030;SDS011;56083;48.774;8.942;2024-01-15T07:40:41;21.25;;;7.43;;
69030;SDS011;56083;48.774;8.942;2024-01-15T07:43:07;17.42;;;7.40;;
69030;SDS011;56083;48.774;8.942;2024-01-15T07:45:33;15.70;;;6.68;;
69030;SDS011;56083;48.774;8.942;2024-01-15T07:47:59;19.15;;;7.47;;
69030;SDS011;56083;48.774;8.942;2024-01-15T07:50:25;20.52;;;7.32;;
69030;SDS011;56083;48.774;8.942;2024-01-15T07:52:52;18.83;;;7.55;;
69030;SDS011;56083;48.774;8.942;2024-01-15T07:55:18;19.40;;;7.78;;
69030;SDS011;56083;48.774;8.942;2024-01-15T07:57:44;20.38;;;7.97;;
69030;SDS011;56083;48.774;8.942;2024-01-15T08:00:11;18.58;;;7.35;;
69030;SDS011;56083;48.774;8.942;2024-01-15T08:02:37;16.55;;;7.00;;
69030;SDS011;56083;48.774;8.942;2024-01-15T08:05:03;20.48;;;7.45;;
69030;SDS011;56083;48.774;8.942;2024-01-15T08:07:29;16.45;;;6.75;;
69030;SDS011;56083;48.774;8.942;2024-01-15T08:09:55;19.98;;;7.32;;
69030;SDS011;56083;48.774;8.942;2024-01-15T08:12:21;15.48;;;6.60;;
69030;SDS011;56083;48.774;8.942;2024-01-15T08:14:47;15.32;;;6.30;;
69030;SDS011;56083;48.774;8.942;2024-01-15T08:17:13;16.45;;;6.75;;
69030;SDS011;56083;48.774;8.942;2024-01-15T08:19:41;21.00;;;6.63;;
69030;SDS011;56083;48.774;8.942;2024-01-15T08:22:07;17.13;;;6.93;;
69030;SDS011;56083;48.774;8.942;2024-01-15T08:24:35;16.10;;;6.80;;
69030;SDS011;56083;48.774;8.942;2024-01-15T08:27:01;22.38;;;6.82;;
69030;SDS011;56083;48.774;8.942;2024-01-15T08:29:27;14.73;;;6.28;;
69030;SDS011;56083;48.774;8.942;2024-01-15T08:31:53;15.65;;;6.57;;
69030;SDS011;56083;48.774;8.942;2024-01-15T08:34:19;15.57;;;6.07;;
69030;SDS011;56083;48.774;8.942;2024-01-15T08:36:45;17.73;;;6.43;;
69030;SDS011;56083;48.774;8.942;2024-01-15T08:39:11;14.75;;;6.60;;
69030;SDS011;56083;48.774;8.942;2024-01-15T08:41:37;15.43;;;6.15;;
69030;SDS011;56083;48.774;8.942;2024-01-15T08:44:03;13.73;;;6.32;;
69030;SDS011;56083;48.774;8.942;2024-01-15T08:46:29;15.63;;;6.70;;
69030;SDS011;56083;48.774;8.942;2024-01-15T08:48:55;15.13;;;5.93;;
69030;SDS011;56083;48.774;8.942;2024-01-15T08:51:21;13.95;;;6.18;;
69030;SDS011;56083;48.774;8.942;2024-01-15T08:53:47;16.73;;;6.07;;
69030;SDS011;56083;48.774;8.942;2024-01-15T08:56:13;13.50;;;5.43;;
69030;SDS011;56083;48.774;8.942;2024-01-15T08:58:39;15.07;;;5.80;;
69030;SDS011;56083;48.774;8.942;2024-01-15T09:01:05;13.30;;;5.65;;
69030;SDS011;56083;48.774;8.942;2024-01-15T09:03:31;11.57;;;4.93;;
69030;SDS011;56083;48.774;8.942;2024-01-15T09:05:58;15.30;;;5.68;;
69030;SDS011;56083;48.774;8.942;2024-01-15T09:08:25;14.05;;;5.25;;
69030;SDS011;56083;48.774;8.942;2024-01-15T09:10:52;13.15;;;4.93;;
69030;SDS011;56083;48.774;8.942;2024-01-15T09:13:18;11.70;;;5.07;;
69030;SDS011;56083;48.774;8.942;2024-01-15T09:15:44;14.23;;;4.90;;
69030;SDS011;56083;48.774;8.942;2024-01-15T09:18:10;48.00;;;20.35;;
69030;SDS011;56083;48.774;8.942;2024-01-15T09:20:36;14.68;;;5.63;;
69030;SDS011;56083;48.774;8.942;2024-01-15T09:23:03;8.70;;;4.03;;
69030;SDS011;56083;48.774;8.942;2024-01-15T09:25:29;36.53;;;20.40;;
69030;SDS011;56083;48.774;8.942;2024-01-15T09:27:55;12.50;;;4.82;;
69030;SDS011;56083;48.774;8.942;2024-01-15T09:30:22;17.95;;;10.20;;
69030;SDS011;56083;48.774;8.942;2024-01-15T09:32:48;56.75;;;31.83;;
69030;SDS011;56083;48.774;8.942;2024-01-15T09:35:14;26.83;;;12.60;;
69030;SDS011;56083;48.774;8.942;2024-01-15T09:37:40;10.95;;;5.57;;
69030;SDS011;56083;48.774;8.942;2024-01-15T09:40:08;13.35;;;5.20;;
69030;SDS011;56083;48.774;8.942;2024-01-15T09:42:35;11.70;;;5.03;;
69030;SDS011;56083;48.774;8.942;2024-01-15T09:45:01;13.98;;;4.97;;
69030;SDS011;56083;48.774;8.942;2024-01-15T09:47:28;14.73;;;4.63;;
69030;SDS011;56083;48.774;8.942;2024-01-15T09:49:55;10.88;;;4.93;;
69030;SDS011;56083;48.774;8.942;2024-01-15T09:52:23;12.25;;;5.40;;
69030;SDS011;56083;48.774;8.942;2024-01-15T09:54:50;10.55;;;4.45;;
69030;SDS011;56083;48.774;8.942;2024-01-15T09:57:16;11.77;;;5.63;;
69030;SDS011;56083;48.774;8.942;2024-01-15T09:59:42;13.63;;;5.30;;
69030;SDS011;56083;48.774;8.942;2024-01-15T10:02:09;14.65;;;5.07;;
69030;SDS011;56083;48.774;8.942;2024-01-15T10:04:35;9.70;;;4.45;;
69030;SDS011;56083;48.774;8.942;2024-01-15T10:07:01;12.38;;;5.30;;
69030;SDS011;56083;48.774;8.942;2024-01-15T10:09:28;9.35;;;4.60;;
69030;SDS011;56083;48.774;8.942;2024-01-15T10:11:55;12.50;;;5.18;;
69030;SDS011;56083;48.774;8.942;2024-01-15T10:14:21;14.15;;;5.43;;
69030;SDS011;56083;48.774;8.942;2024-01-15T10:16:50;10.63;;;4.75;;
69030;SDS011;56083;48.774;8.942;2024-01-15T10:19:16;11.63;;;5.00;;
69030;SDS011;56083;48.774;8.942;2024-01-15T10:21:42;9.02;;;4.55;;
69030;SDS011;56083;48.774;8.942;2024-01-15T10:24:17;12.05;;;5.15;;
69030;SDS011;56083;48.774;8.942;2024-01-15T10:26:44;15.80;;;5.38;;
69030;SDS011;56083;48.774;8.942;2024-01-15T10:29:10;15.00;;;5.32;;
69030;SDS011;56083;48.774;8.942;2024-01-15T10:31:37;13.27;;;4.43;;
69030;SDS011;56083;48.774;8.942;2024-01-15T10:34:10;13.93;;;4.57;;
69030;SDS011;56083;48.774;8.942;2024-01-15T10:36:39;12.20;;;4.72;;
69030;SDS011;56083;48.774;8.942;2024-01-15T10:39:06;11.93;;;5.03;;
69030;SDS011;56083;48.774;8.942;2024-01-15T10:41:33;11.52;;;4.75;;
69030;SDS011;56083;48.774;8.942;2024-01-15T10:43:59;15.10;;;5.10;;
69030;SDS011;56083;48.774;8.942;2024-01-15T10:46:25;14.90;;;5.28;;
69030;SDS011;56083;48.774;8.942;2024-01-15T10:48:51;19.27;;;5.65;;
69030;SDS011;56083;48.774;8.942;2024-01-15T10:51:17;11.60;;;5.53;;
69030;SDS011;56083;48.774;8.942;2024-01-15T10:53:44;14.52;;;4.90;;
69030;SDS011;56083;48.774;8.942;2024-01-15T10:56:11;12.10;;;5.43;;
69030;SDS011;56083;48.774;8.942;2024-01-15T10:58:39;14.35;;;5.65;;
69030;SDS011;56083;48.774;8.942;2024-01-15T11:01:05;14.05;;;6.43;;
69030;SDS011;56083;48.774;8.942;2024-01-15T11:03:32;12.43;;;5.18;;
69030;SDS011;56083;48.774;8.942;2024-01-15T11:05:59;10.60;;;4.90;;
69030;SDS011;56083;48.774;8.942;2024-01-15T11:08:25;13.85;;;5.43;;
69030;SDS011;56083;48.774;8.942;2024-01-15T11:10:51;11.85;;;5.40;;
69030;SDS011;56083;48.774;8.942;2024-01-15T11:13:22;13.93;;;5.50;;
69030;SDS011;56083;48.774;8.942;2024-01-15T11:15:55;16.13;;;5.63;;
69030;SDS011;56083;48.774;8.942;2024-01-15T11:18:22;13.68;;;5.88;;
69030;SDS011;56083;48.774;8.942;2024-01-15T11:23:45;15.77;;;6.32;;
69030;SDS011;56083;48.774;8.942;2024-01-15T11:28:57;12.55;;;6.03;;
69030;SDS011;56083;48.774;8.942;2024-01-15T11:31:30;18.33;;;6.45;;
69030;SDS011;56083;48.774;8.942;2024-01-15T11:34:12;15.57;;;6.95;;
69030;SDS011;56083;48.774;8.942;2024-01-15T11:40:00;16.75;;;7.40;;
69030;SDS011;56083;48.774;8.942;2024-01-15T11:42:09;17.95;;;7.43;;
69030;SDS011;56083;48.774;8.942;2024-01-15T11:44:35;21.02;;;8.25;;
69030;SDS011;56083;48.774;8.942;2024-01-15T11:52:07;14.35;;;6.57;;
69030;SDS011;56083;48.774;8.942;2024-01-15T11:54:36;16.45;;;6.43;;
69030;SDS011;56083;48.774;8.942;2024-01-15T11:57:09;16.55;;;7.10;;
69030;SDS011;56083;48.774;8.942;2024-01-15T11:59:35;15.75;;;6.53;;
69030;SDS011;56083;48.774;8.942;2024-01-15T12:02:02;15.25;;;6.38;;
69030;SDS011;56083;48.774;8.942;2024-01-15T12:04:28;12.48;;;6.10;;
69030;SDS011;56083;48.774;8.942;2024-01-15T12:06:54;16.83;;;6.57;;
69030;SDS011;56083;48.774;8.942;2024-01-15T12:09:20;14.45;;;6.70;;
69030;SDS011;56083;48.774;8.942;2024-01-15T12:11:48;16.83;;;6.55;;
69030;SDS011;56083;48.774;8.942;2024-01-15T12:14:16;13.82;;;6.15;;
69030;SDS011;56083;48.774;8.942;2024-01-15T12:16:42;15.27;;;6.20;;
69030;SDS011;56083;48.774;8.942;2024-01-15T12:19:08;15.68;;;6.00;;
69030;SDS011;56083;48.774;8.942;2024-01-15T12:21:35;13.85;;;5.95;;
69030;SDS011;56083;48.774;8.942;2024-01-15T12:24:01;14.63;;;6.03;;
69030;SDS011;56083;48.774;8.942;2024-01-15T12:26:27;17.85;;;6.05;;
69030;SDS011;56083;48.774;8.942;2024-01-15T12:28:53;14.60;;;6.00;;
69030;SDS011;56083;48.774;8.942;2024-01-15T12:31:20;20.50;;;6.07;;
69030;SDS011;56083;48.774;8.942;2024-01-15T12:33:46;16.88;;;6.93;;
69030;SDS011;56083;48.774;8.942;2024-01-15T12:36:13;27.27;;;10.95;;
69030;SDS011;56083;48.774;8.942;2024-01-15T12:38:39;21.33;;;7.95;;
69030;SDS011;56083;48.774;8.942;2024-01-15T12:41:05;114.22;;;44.60;;
69030;SDS011;56083;48.774;8.942;2024-01-15T12:43:31;28.00;;;13.88;;
69030;SDS011;56083;48.774;8.942;2024-01-15T12:45:59;19.02;;;8.07;;
69030;SDS011;56083;48.774;8.942;2024-01-15T12:48:33;21.40;;;8.05;;
69030;SDS011;56083;48.774;8.942;2024-01-15T12:51:00;13.70;;;6.38;;
69030;SDS011;56083;48.774;8.942;2024-01-15T12:53:26;16.10;;;6.25;;
69030;SDS011;56083;48.774;8.942;2024-01-15T12:55:52;13.65;;;6.25;;
69030;SDS011;56083;48.774;8.942;2024-01-15T12:58:18;21.27;;;10.05;;
69030;SDS011;56083;48.774;8.942;2024-01-15T13:00:46;16.08;;;8.32;;
69030;SDS011;56083;48.774;8.942;2024-01-15T13:03:12;11.98;;;5.38;;
69030;SDS011;56083;48.774;8.942;2024-01-15T13:05:39;12.35;;;5.88;;
69030;SDS011;56083;48.774;8.942;2024-01-15T13:08:05;14.75;;;5.15;;
69030;SDS011;56083;48.774;8.942;2024-01-15T13:10:32;20.10;;;9.13;;
69030;SDS011;56083;48.774;8.942;2024-01-15T13:12:58;17.35;;;6.05;;
69030;SDS011;56083;48.774;8.942;2024-01-15T13:15:24;11.90;;;5.78;;
69030;SDS011;56083;48.774;8.942;2024-01-15T13:17:50;12.75;;;6.50;;
69030;SDS011;56083;48.774;8.942;2024-01-15T13:20:16;13.35;;;5.80;;
69030;SDS011;56083;48.774;8.942;2024-01-15T13:22:42;16.70;;;7.57;;
69030;SDS011;56083;48.774;8.942;2024-01-15T13:25:10;19.00;;;9.70;;
69030;SDS011;56083;48.774;8.942;2024-01-15T13:27:36;12.57;;;6.10;;
69030;SDS011;56083;48.774;8.942;2024-01-15T13:30:03;12.30;;;5.63;;
69030;SDS011;56083;48.774;8.942;2024-01-15T13:32:29;12.13;;;5.22;;
69030;SDS011;56083;48.774;8.942;2024-01-15T13:34:55;10.20;;;5.25;;
69030;SDS011;56083;48.774;8.942;2024-01-15T13:37:22;11.27;;;4.82;;
69030;SDS011;56083;48.774;8.942;2024-01-15T13:39:51;12.00;;;4.40;;
69030;SDS011;56083;48.774;8.942;2024-01-15T13:42:17;10.52;;;5.07;;
69030;SDS011;56083;48.774;8.942;2024-01-15T13:44:44;10.85;;;5.82;;
69030;SDS011;56083;48.774;8.942;2024-01-15T13:47:10;10.15;;;5.22;;
69030;SDS011;56083;48.774;8.942;2024-01-15T13:49:36;9.30;;;4.50;;
69030;SDS011;56083;48.774;8.942;2024-01-15T13:52:02;10.75;;;4.53;;
69030;SDS011;56083;48.774;8.942;2024-01-15T13:54:29;9.48;;;4.45;;
69030;SDS011;56083;48.774;8.942;2024-01-15T13:56:55;11.35;;;4.38;;
69030;SDS011;56083;48.774;8.942;2024-01-15T13:59:21;9.07;;;4.30;;
69030;SDS011;56083;48.774;8.942;2024-01-15T14:01:47;7.22;;;4.22;;
69030;SDS011;56083;48.774;8.942;2024-01-15T14:04:13;8.40;;;4.55;;
69030;SDS011;56083;48.774;8.942;2024-01-15T14:06:40;7.82;;;3.72;;
69030;SDS011;56083;48.774;8.942;2024-01-15T14:09:06;8.80;;;4.40;;
69030;SDS011;56083;48.774;8.942;2024-01-15T14:11:35;8.60;;;4.80;;
69030;SDS011;56083;48.774;8.942;2024-01-15T14:14:01;11.45;;;4.97;;
69030;SDS011;56083;48.774;8.942;2024-01-15T14:16:27;10.38;;;5.47;;
69030;SDS011;56083;48.774;8.942;2024-01-15T14:18:53;8.93;;;4.72;;
69030;SDS011;56083;48.774;8.942;2024-01-15T14:21:19;10.48;;;4.55;;
69030;SDS011;56083;48.774;8.942;2024-01-15T14:23:45;9.18;;;4.55;;
69030;SDS011;56083;48.774;8.942;2024-01-15T14:26:11;9.98;;;4.13;;
69030;SDS011;56083;48.774;8.942;2024-01-15T14:28:37;7.70;;;4.50;;
69030;SDS011;56083;48.774;8.942;2024-01-15T14:31:04;7.38;;;4.55;;
69030;SDS011;56083;48.774;8.942;2024-01-15T14:33:30;7.35;;;4.32;;
69030;SDS011;56083;48.774;8.942;2024-01-15T14:35:57;9.13;;;4.78;;
69030;SDS011;56083;48.774;8.942;2024-01-15T14:38:23;11.75;;;7.32;;